createdAt,value
2016-09-16T00:00:54.081Z,0
2016-09-16T00:02:04.070Z,0
2016-09-16T00:03:14.065Z,0
2016-09-16T00:04:24.352Z,0
2016-09-16T00:05:34.359Z,0
2016-09-16T00:06:44.665Z,0
2016-09-16T00:07:54.972Z,0
2016-09-16T00:09:05.254Z,0
2016-09-16T00:10:15.550Z,0
2016-09-16T00:11:25.837Z,0
2016-09-16T00:12:35.803Z,0
2016-09-16T00:13:45.788Z,0
2016-09-16T00:14:56.107Z,0
2016-09-16T00:16:06.391Z,0
2016-09-16T00:17:16.380Z,0
2016-09-16T00:18:26.667Z,0
2016-09-16T00:19:36.648Z,0
2016-09-16T00:20:46.967Z,0
2016-09-16T00:21:56.945Z,0
2016-09-16T00:23:06.929Z,0
2016-09-16T00:24:16.919Z,0
2016-09-16T00:25:27.203Z,0
2016-09-16T00:26:37.489Z,0
2016-09-16T00:27:47.781Z,0
2016-09-16T00:28:58.068Z,0
2016-09-16T00:30:08.361Z,0
2016-09-16T00:31:18.350Z,0
2016-09-16T00:32:28.871Z,0
2016-09-16T00:33:38.848Z,0
2016-09-16T00:34:49.132Z,0
2016-09-16T00:35:58.802Z,0
2016-09-16T00:37:09.091Z,0
2016-09-16T00:38:19.379Z,0
2016-09-16T00:39:29.667Z,0
2016-09-16T00:40:39.949Z,0
2016-09-16T00:41:49.924Z,0
2016-09-16T00:43:00.212Z,0
2016-09-16T00:44:10.505Z,0
2016-09-16T00:45:20.789Z,0
2016-09-16T00:46:31.083Z,0
2016-09-16T00:47:41.385Z,0
2016-09-16T00:48:51.680Z,0
2016-09-16T00:50:01.657Z,0
2016-09-16T00:51:11.949Z,0
2016-09-16T00:52:22.246Z,0
2016-09-16T00:53:32.238Z,0
2016-09-16T00:54:42.532Z,0
2016-09-16T00:55:52.836Z,0
2016-09-16T00:57:02.807Z,0
2016-09-16T00:58:13.096Z,0
2016-09-16T00:59:23.370Z,0
2016-09-16T01:00:33.356Z,0
2016-09-16T01:01:43.655Z,0
2016-09-16T01:02:53.641Z,0
2016-09-16T01:04:03.939Z,0
2016-09-16T01:05:13.965Z,0
2016-09-16T01:06:24.256Z,0
2016-09-16T01:07:34.551Z,0
2016-09-16T01:08:44.558Z,0
2016-09-16T01:09:54.844Z,0
2016-09-16T01:11:05.129Z,0
2016-09-16T01:12:15.445Z,0
2016-09-16T01:13:25.428Z,0
2016-09-16T01:14:35.723Z,0
2016-09-16T01:15:46.018Z,0
2016-09-16T01:16:56.297Z,0
2016-09-16T01:18:06.275Z,0
2016-09-16T01:19:16.277Z,0
2016-09-16T01:20:26.576Z,0
2016-09-16T01:21:36.884Z,0
2016-09-16T01:22:46.861Z,0
2016-09-16T01:23:56.836Z,0
2016-09-16T01:25:06.820Z,0
2016-09-16T01:26:16.791Z,0
2016-09-16T01:27:26.462Z,0
2016-09-16T01:28:35.819Z,0
2016-09-16T01:29:46.122Z,0
2016-09-16T01:30:56.118Z,0
2016-09-16T01:32:06.405Z,0
2016-09-16T01:33:16.683Z,0
2016-09-16T01:34:26.977Z,0
2016-09-16T01:35:37.274Z,0
2016-09-16T01:36:47.566Z,0
2016-09-16T01:37:57.864Z,0
2016-09-16T01:39:07.848Z,0
2016-09-16T01:40:18.145Z,0
2016-09-16T01:41:28.436Z,0
2016-09-16T01:42:38.410Z,0
2016-09-16T01:43:48.696Z,0
2016-09-16T01:44:58.988Z,0
2016-09-16T01:46:08.975Z,0
2016-09-16T01:47:18.964Z,0
2016-09-16T01:48:29.237Z,0
2016-09-16T01:49:39.557Z,0
2016-09-16T01:50:49.836Z,0
2016-09-16T01:51:59.822Z,0
2016-09-16T01:53:09.788Z,0
2016-09-16T01:54:20.078Z,0
2016-09-16T01:55:30.357Z,0
2016-09-16T01:56:40.638Z,0
2016-09-16T01:57:50.315Z,0
2016-09-16T01:59:00.612Z,0
2016-09-16T02:00:10.905Z,0
2016-09-16T02:01:21.202Z,0
2016-09-16T02:02:31.172Z,0
2016-09-16T02:03:41.145Z,0
2016-09-16T02:04:51.466Z,0
2016-09-16T02:06:01.811Z,0
2016-09-16T02:07:11.484Z,0
2016-09-16T02:08:21.770Z,0
2016-09-16T02:09:31.752Z,0
2016-09-16T02:10:42.043Z,0
2016-09-16T02:11:52.347Z,0
2016-09-16T02:13:02.341Z,0
2016-09-16T02:14:12.638Z,0
2016-09-16T02:15:22.641Z,0
2016-09-16T02:16:32.619Z,0
2016-09-16T02:17:42.614Z,0
2016-09-16T02:18:52.606Z,0
2016-09-16T02:20:02.890Z,0
2016-09-16T02:21:13.188Z,0
2016-09-16T02:22:23.466Z,0
2016-09-16T02:23:33.768Z,0
2016-09-16T02:24:44.043Z,0
2016-09-16T02:25:54.344Z,0
2016-09-16T02:27:04.651Z,0
2016-09-16T02:28:14.310Z,0
2016-09-16T02:29:24.606Z,0
2016-09-16T02:30:34.939Z,0
2016-09-16T02:31:45.245Z,0
2016-09-16T02:32:55.552Z,0
2016-09-16T02:34:05.827Z,0
2016-09-16T02:35:16.113Z,0
2016-09-16T02:36:25.790Z,0
2016-09-16T02:37:36.063Z,0
2016-09-16T02:38:46.343Z,0
2016-09-16T02:39:56.630Z,0
2016-09-16T02:41:06.922Z,0
2016-09-16T02:42:17.199Z,0
2016-09-16T02:43:27.186Z,0
2016-09-16T02:44:37.471Z,0
2016-09-16T02:45:47.454Z,0
2016-09-16T02:46:57.124Z,0
2016-09-16T02:48:07.401Z,0
2016-09-16T02:49:17.684Z,0
2016-09-16T02:50:27.969Z,0
2016-09-16T02:51:38.255Z,0
2016-09-16T02:52:47.923Z,0
2016-09-16T02:53:58.200Z,0
2016-09-16T02:55:08.496Z,0
2016-09-16T02:56:18.773Z,0
2016-09-16T02:57:29.070Z,0
2016-09-16T02:58:39.356Z,0
2016-09-16T02:59:49.329Z,0
2016-09-16T03:00:59.618Z,0
2016-09-16T03:32:32.551Z,0
2016-09-16T03:33:42.514Z,0
2016-09-16T03:34:52.783Z,0
2016-09-16T03:36:02.456Z,0
2016-09-16T03:37:12.766Z,0
2016-09-16T03:38:23.049Z,0
2016-09-16T03:39:33.351Z,0
2016-09-16T03:40:43.323Z,0
2016-09-16T03:41:53.614Z,0
2016-09-16T03:43:03.621Z,0
2016-09-16T03:44:13.915Z,0
2016-09-16T03:45:23.895Z,0
2016-09-16T03:46:34.184Z,0
2016-09-16T03:47:44.489Z,0
2016-09-16T03:48:54.772Z,0
2016-09-16T03:50:04.750Z,0
2016-09-16T03:51:15.028Z,0
2016-09-16T03:52:25.007Z,0
2016-09-16T03:53:35.301Z,0
2016-09-16T03:54:45.579Z,0
2016-09-16T03:55:55.552Z,0
2016-09-16T03:57:05.556Z,0
2016-09-16T03:58:15.843Z,0
2016-09-16T03:59:26.129Z,0
2016-09-16T04:00:36.423Z,4
2016-09-16T04:01:46.725Z,0
2016-09-16T04:02:57.047Z,0
2016-09-16T04:04:07.027Z,4
2016-09-16T04:05:17.322Z,4
2016-09-16T04:06:27.625Z,4
2016-09-16T04:07:37.609Z,4
2016-09-16T04:08:47.890Z,4
2016-09-16T04:09:58.178Z,8
2016-09-16T04:11:08.487Z,8
2016-09-16T04:12:18.794Z,8
2016-09-16T04:13:28.471Z,12
2016-09-16T04:14:38.466Z,16
2016-09-16T04:15:48.773Z,16
2016-09-16T04:16:59.107Z,20
2016-09-16T04:18:09.414Z,24
2016-09-16T04:19:19.706Z,28
2016-09-16T04:20:29.383Z,32
2016-09-16T04:21:39.707Z,40
2016-09-16T04:22:50.023Z,48
2016-09-16T04:24:00.037Z,56
2016-09-16T04:25:10.336Z,64
2016-09-16T04:26:20.616Z,72
2016-09-16T04:27:30.911Z,84
2016-09-16T04:28:40.897Z,92
2016-09-16T04:29:51.190Z,104
2016-09-16T04:31:01.471Z,120
2016-09-16T04:32:11.463Z,128
2016-09-16T04:33:21.760Z,140
2016-09-16T04:34:32.072Z,152
2016-09-16T04:35:42.373Z,172
2016-09-16T04:36:52.361Z,196
2016-09-16T04:38:02.663Z,208
2016-09-16T04:39:12.969Z,224
2016-09-16T04:40:23.260Z,244
2016-09-16T04:41:33.232Z,260
2016-09-16T04:42:43.217Z,284
2016-09-16T04:43:53.199Z,300
2016-09-16T04:45:03.482Z,320
2016-09-16T04:46:13.469Z,352
2016-09-16T04:47:23.752Z,396
2016-09-16T04:48:33.722Z,436
2016-09-16T04:49:43.389Z,464
2016-09-16T04:50:53.067Z,488
2016-09-16T04:52:03.366Z,524
2016-09-16T04:53:13.346Z,560
2016-09-16T04:54:23.632Z,588
2016-09-16T04:55:33.921Z,616
2016-09-16T04:56:44.221Z,652
2016-09-16T04:57:54.536Z,696
2016-09-16T04:59:04.846Z,736
2016-09-16T05:00:14.822Z,768
2016-09-16T05:01:25.120Z,780
2016-09-16T05:02:35.419Z,776
2016-09-16T05:03:45.703Z,760
2016-09-16T05:04:55.682Z,768
2016-09-16T05:06:05.976Z,792
2016-09-16T05:07:15.964Z,832
2016-09-16T05:08:26.245Z,880
2016-09-16T05:09:36.548Z,916
2016-09-16T05:10:46.534Z,928
2016-09-16T05:11:56.816Z,952
2016-09-16T05:13:06.506Z,964
2016-09-16T05:14:15.855Z,952
2016-09-16T05:15:26.151Z,936
2016-09-16T05:16:36.432Z,928
2016-09-16T05:17:46.415Z,932
2016-09-16T05:18:55.791Z,968
2016-09-16T05:20:06.079Z,1028
2016-09-16T05:21:16.379Z,1048
2016-09-16T05:22:26.702Z,1020
2016-09-16T05:23:36.373Z,996
2016-09-16T05:24:46.674Z,1000
2016-09-16T05:25:56.682Z,1004
2016-09-16T05:27:06.971Z,1016
2016-09-16T05:28:16.971Z,1048
2016-09-16T05:29:27.279Z,1072
2016-09-16T05:30:36.952Z,1080
2016-09-16T05:31:46.928Z,1100
2016-09-16T05:32:56.916Z,1116
2016-09-16T05:34:07.204Z,1112
2016-09-16T05:35:16.869Z,1128
2016-09-16T05:36:27.167Z,1152
2016-09-16T05:37:37.449Z,1220
2016-09-16T05:38:47.121Z,1332
2016-09-16T05:39:57.101Z,1460
2016-09-16T05:41:07.397Z,1568
2016-09-16T05:42:17.676Z,1668
2016-09-16T05:43:27.688Z,1768
2016-09-16T05:44:37.063Z,1832
2016-09-16T05:45:47.046Z,1880
2016-09-16T05:46:57.347Z,1976
2016-09-16T05:48:07.329Z,2068
2016-09-16T05:49:17.331Z,2052
2016-09-16T05:50:27.316Z,1952
2016-09-16T05:51:37.308Z,1940
2016-09-16T05:52:47.599Z,2000
2016-09-16T05:53:57.881Z,2016
2016-09-16T05:55:07.856Z,2028
2016-09-16T05:56:18.157Z,2028
2016-09-16T05:57:28.148Z,2000
2016-09-16T05:58:38.134Z,1920
2016-09-16T05:59:48.106Z,1760
2016-09-16T06:00:58.088Z,1676
2016-09-16T06:02:08.373Z,1676
2016-09-16T06:03:18.370Z,1688
2016-09-16T06:04:28.658Z,1656
2016-09-16T06:05:38.630Z,1616
2016-09-16T06:06:48.918Z,1604
2016-09-16T06:07:58.597Z,1588
2016-09-16T06:09:08.909Z,1692
2016-09-16T06:10:19.201Z,1788
2016-09-16T06:11:29.503Z,1868
2016-09-16T06:12:39.806Z,1976
2016-09-16T06:13:49.790Z,2140
2016-09-16T06:14:59.456Z,2248
2016-09-16T06:16:09.419Z,2296
2016-09-16T06:17:19.720Z,2396
2016-09-16T06:18:29.397Z,2440
2016-09-16T06:19:39.102Z,2536
2016-09-16T06:20:49.100Z,2572
2016-09-16T06:21:59.409Z,2740
2016-09-16T06:23:09.395Z,2736
2016-09-16T06:24:18.751Z,2832
2016-09-16T06:25:29.037Z,3140
2016-09-16T06:26:39.010Z,3156
2016-09-16T06:27:49.001Z,3376
2016-09-16T06:28:58.388Z,3384
2016-09-16T06:30:08.369Z,3540
2016-09-16T06:31:18.345Z,3568
2016-09-16T06:32:28.331Z,3496
2016-09-16T06:33:38.614Z,3508
2016-09-16T06:34:48.345Z,3448
2016-09-16T06:35:58.336Z,3668
2016-09-16T06:37:08.629Z,3784
2016-09-16T06:38:18.629Z,3944
2016-09-16T06:39:28.307Z,4272
2016-09-16T06:40:38.294Z,4400
2016-09-16T06:41:48.300Z,4440
2016-09-16T06:42:58.594Z,4800
2016-09-16T06:44:08.570Z,4860
2016-09-16T06:45:18.260Z,5044
2016-09-16T06:46:28.244Z,5008
2016-09-16T06:47:37.923Z,5008
2016-09-16T06:48:47.591Z,4656
2016-09-16T06:49:57.884Z,4836
2016-09-16T06:51:08.194Z,5060
2016-09-16T06:52:18.481Z,5140
2016-09-16T06:53:28.792Z,5004
2016-09-16T06:54:38.780Z,5340
2016-09-16T06:55:48.755Z,5332
2016-09-16T06:56:58.766Z,5300
2016-09-16T06:58:08.458Z,5320
2016-09-16T06:59:18.748Z,5388
2016-09-16T07:00:28.421Z,5372
2016-09-16T07:01:38.437Z,5384
2016-09-16T07:02:48.723Z,5448
2016-09-16T07:03:58.392Z,5476
2016-09-16T07:05:08.058Z,5440
2016-09-16T07:06:18.065Z,5424
2016-09-16T07:07:28.044Z,5468
2016-09-16T07:08:38.056Z,5500
2016-09-16T07:09:48.351Z,5560
2016-09-16T07:10:58.331Z,5560
2016-09-16T07:12:08.611Z,5504
2016-09-16T07:13:18.279Z,5512
2016-09-16T07:14:28.565Z,5584
2016-09-16T07:15:38.553Z,5656
2016-09-16T07:16:48.850Z,5568
2016-09-16T07:17:58.826Z,5648
2016-09-16T07:19:09.129Z,5608
2016-09-16T07:20:19.120Z,5584
2016-09-16T07:21:28.808Z,5696
2016-09-16T07:22:39.098Z,5616
2016-09-16T07:23:49.091Z,5616
2016-09-16T07:24:59.087Z,5716
2016-09-16T07:26:09.074Z,5756
2016-09-16T07:27:19.056Z,5764
2016-09-16T07:28:29.073Z,5764
2016-09-16T07:29:39.064Z,5780
2016-09-16T07:30:48.434Z,5804
2016-09-16T07:31:58.728Z,5856
2016-09-16T07:33:09.013Z,5828
2016-09-16T07:34:19.031Z,5880
2016-09-16T07:35:29.362Z,5936
2016-09-16T07:36:39.040Z,5988
2016-09-16T07:37:49.051Z,5936
2016-09-16T07:38:59.032Z,5956
2016-09-16T07:40:09.039Z,5956
2016-09-16T07:41:19.341Z,5892
2016-09-16T07:42:29.368Z,6004
2016-09-16T07:43:39.357Z,5996
2016-09-16T07:44:49.663Z,6008
2016-09-16T07:45:59.657Z,6088
2016-09-16T07:47:09.328Z,6128
2016-09-16T07:48:19.315Z,6092
2016-09-16T07:49:29.304Z,6176
2016-09-16T07:50:38.974Z,6144
2016-09-16T07:51:48.646Z,6240
2016-09-16T07:52:58.657Z,6208
2016-09-16T07:54:08.645Z,6240
2016-09-16T07:55:18.331Z,6244
2016-09-16T07:56:28.330Z,6288
2016-09-16T07:57:38.031Z,6308
2016-09-16T07:58:48.023Z,6300
2016-09-16T07:59:58.000Z,6284
2016-09-16T08:01:08.024Z,6376
2016-09-16T08:02:18.026Z,6428
2016-09-16T08:03:28.033Z,6396
2016-09-16T08:04:38.330Z,6432
2016-09-16T08:05:48.310Z,6452
2016-09-16T08:06:58.631Z,6484
2016-09-16T08:08:08.624Z,6528
2016-09-16T08:09:18.915Z,6548
2016-09-16T08:10:28.595Z,6568
2016-09-16T08:11:38.570Z,6592
2016-09-16T08:12:48.281Z,6620
2016-09-16T08:13:58.272Z,6628
2016-09-16T08:15:07.975Z,6680
2016-09-16T08:16:17.976Z,6688
2016-09-16T08:17:28.267Z,6704
2016-09-16T08:18:38.583Z,6672
2016-09-16T08:19:48.852Z,6732
2016-09-16T08:20:58.829Z,6784
2016-09-16T08:22:09.136Z,6808
2016-09-16T08:23:19.132Z,6848
2016-09-16T08:24:29.734Z,6892
2016-09-16T08:25:39.105Z,6856
2016-09-16T08:26:49.383Z,6952
2016-09-16T08:27:59.682Z,7004
2016-09-16T08:29:09.975Z,7036
2016-09-16T08:30:20.279Z,7008
2016-09-16T08:31:30.582Z,7064
2016-09-16T08:32:40.884Z,7084
2016-09-16T08:33:51.177Z,7108
2016-09-16T08:35:01.467Z,7088
2016-09-16T08:36:11.490Z,7164
2016-09-16T08:37:21.510Z,7100
2016-09-16T08:38:31.808Z,7124
2016-09-16T08:39:42.112Z,7164
2016-09-16T08:40:52.398Z,7240
2016-09-16T08:42:02.695Z,7344
2016-09-16T08:43:12.999Z,7264
2016-09-16T08:44:22.976Z,7360
2016-09-16T08:45:32.966Z,7280
2016-09-16T08:46:43.275Z,7324
2016-09-16T08:47:53.773Z,7364
2016-09-16T08:49:03.752Z,7428
2016-09-16T08:50:14.070Z,7308
2016-09-16T08:51:24.577Z,7280
2016-09-16T08:52:34.879Z,7352
2016-09-16T08:53:45.171Z,7308
2016-09-16T08:54:55.481Z,7432
2016-09-16T08:56:05.785Z,7464
2016-09-16T08:57:15.802Z,7524
2016-09-16T08:58:25.796Z,7292
2016-09-16T08:59:36.090Z,7064
2016-09-16T09:00:46.059Z,7704
2016-09-16T09:01:56.351Z,7920
2016-09-16T09:03:06.362Z,8036
2016-09-16T09:04:16.353Z,8324
2016-09-16T09:05:26.687Z,8320
2016-09-16T09:06:36.711Z,8300
2016-09-16T09:07:46.730Z,8364
2016-09-16T09:08:57.038Z,8424
2016-09-16T09:10:06.749Z,8220
2016-09-16T09:11:16.456Z,8340
2016-09-16T09:12:26.466Z,8264
2016-09-16T09:13:36.760Z,8472
2016-09-16T09:14:46.781Z,8724
2016-09-16T09:15:56.778Z,8492
2016-09-16T09:17:07.114Z,8408
2016-09-16T09:18:16.814Z,8492
2016-09-16T09:19:27.135Z,8748
2016-09-16T09:20:36.541Z,8780
2016-09-16T09:21:46.879Z,8736
2016-09-16T09:22:56.884Z,8200
2016-09-16T09:24:06.886Z,7844
2016-09-16T09:25:16.601Z,7748
2016-09-16T09:26:27.099Z,7796
2016-09-16T09:27:36.791Z,7948
2016-09-16T09:28:46.788Z,8176
2016-09-16T09:29:56.816Z,8460
2016-09-16T09:31:08.356Z,8848
2016-09-16T09:32:22.416Z,8600
2016-09-16T09:33:33.818Z,8748
2016-09-16T09:34:44.141Z,9296
2016-09-16T09:35:54.458Z,9352
2016-09-16T09:37:04.488Z,9124
2016-09-16T09:38:14.816Z,9004
2016-09-16T09:39:25.130Z,8936
2016-09-16T09:40:35.139Z,8916
2016-09-16T09:41:45.445Z,9024
2016-09-16T09:42:55.773Z,9544
2016-09-16T09:44:06.089Z,9792
2016-09-16T09:45:16.102Z,9564
2016-09-16T09:46:26.051Z,9368
2016-09-16T09:47:35.783Z,9696
2016-09-16T09:48:46.110Z,9920
2016-09-16T09:49:56.482Z,9892
2016-09-16T09:51:06.212Z,9404
2016-09-16T09:52:15.916Z,9036
2016-09-16T09:53:26.243Z,9412
2016-09-16T09:54:36.591Z,9972
2016-09-16T09:55:46.975Z,10048
2016-09-16T09:56:56.697Z,10176
2016-09-16T09:58:07.029Z,10552
2016-09-16T09:59:17.041Z,10732
2016-09-16T10:00:27.027Z,10764
2016-09-16T10:01:37.328Z,10620
2016-09-16T10:02:47.620Z,10008
2016-09-16T10:03:57.305Z,9392
2016-09-16T10:05:07.314Z,9168
2016-09-16T10:06:17.616Z,9172
2016-09-16T10:07:27.943Z,8828
2016-09-16T10:08:37.945Z,8308
2016-09-16T10:09:47.941Z,8376
2016-09-16T10:10:57.926Z,8388
2016-09-16T10:12:07.920Z,8848
2016-09-16T10:13:18.206Z,8780
2016-09-16T10:14:27.582Z,8516
2016-09-16T10:15:37.565Z,8640
2016-09-16T10:16:47.244Z,8544
2016-09-16T10:17:57.239Z,8480
2016-09-16T10:19:07.235Z,9260
2016-09-16T10:20:17.236Z,9404
2016-09-16T10:21:27.228Z,9824
2016-09-16T10:22:37.520Z,9236
2016-09-16T10:23:47.530Z,9912
2016-09-16T10:24:57.524Z,9936
2016-09-16T10:26:07.523Z,9880
2016-09-16T10:27:17.807Z,10060
2016-09-16T10:28:27.808Z,10304
2016-09-16T10:29:37.501Z,10164
2016-09-16T10:30:47.497Z,10020
2016-09-16T10:31:57.184Z,9656
2016-09-16T10:33:07.479Z,9676
2016-09-16T10:34:17.782Z,8956
2016-09-16T10:35:28.081Z,9112
2016-09-16T10:36:37.760Z,9044
2016-09-16T10:37:48.076Z,9300
2016-09-16T10:38:58.058Z,9368
2016-09-16T10:40:08.342Z,9464
2016-09-16T10:41:18.327Z,9008
2016-09-16T10:42:28.633Z,8952
2016-09-16T10:43:38.635Z,8908
2016-09-16T10:44:48.941Z,9296
2016-09-16T10:45:58.928Z,9692
2016-09-16T10:47:08.604Z,9344
2016-09-16T10:48:18.913Z,9136
2016-09-16T10:49:28.598Z,9220
2016-09-16T10:50:38.605Z,9136
2016-09-16T10:51:48.618Z,9176
2016-09-16T10:52:58.624Z,9548
2016-09-16T10:54:08.916Z,9660
2016-09-16T10:55:18.595Z,9980
2016-09-16T10:56:28.290Z,10120
2016-09-16T10:57:38.285Z,10032
2016-09-16T10:58:48.594Z,9724
2016-09-16T10:59:58.268Z,10028
2016-09-16T11:01:08.271Z,10088
2016-09-16T11:02:17.966Z,10184
2016-09-16T11:03:28.284Z,9308
2016-09-16T11:04:38.295Z,7020
2016-09-16T11:05:48.290Z,9072
2016-09-16T11:06:58.304Z,9420
2016-09-16T11:08:08.608Z,9744
2016-09-16T11:09:18.905Z,9664
2016-09-16T11:10:29.209Z,7456
2016-09-16T11:11:39.216Z,9524
2016-09-16T11:12:48.592Z,9396
2016-09-16T11:13:58.901Z,9040
2016-09-16T11:15:09.208Z,8168
2016-09-16T11:16:19.207Z,6648
2016-09-16T11:17:29.200Z,9436
2016-09-16T11:18:38.877Z,9384
2016-09-16T11:19:48.893Z,9520
2016-09-16T11:20:58.587Z,9196
2016-09-16T11:22:08.577Z,8964
2016-09-16T11:23:18.619Z,6424
2016-09-16T11:24:28.911Z,9680
2016-09-16T11:25:38.892Z,9492
2016-09-16T11:26:48.275Z,9772
2016-09-16T11:27:58.268Z,9516
2016-09-16T11:29:08.569Z,9324
2016-09-16T11:30:18.553Z,9412
2016-09-16T11:31:28.537Z,8764
2016-09-16T11:32:38.207Z,8956
2016-09-16T11:33:48.502Z,9328
2016-09-16T11:34:58.195Z,9104
2016-09-16T11:36:08.483Z,8936
2016-09-16T11:37:18.480Z,9016
2016-09-16T11:38:28.567Z,9136
2016-09-16T11:39:38.624Z,9344
2016-09-16T11:40:48.920Z,10004
2016-09-16T11:41:59.205Z,9932
2016-09-16T11:43:09.524Z,10088
2016-09-16T11:44:19.548Z,9684
2016-09-16T11:45:29.530Z,9536
2016-09-16T11:46:39.509Z,9276
2016-09-16T11:47:49.807Z,9224
2016-09-16T11:49:00.119Z,9680
2016-09-16T11:50:10.671Z,9596
2016-09-16T11:51:20.985Z,9316
2016-09-16T11:52:30.052Z,8884
2016-09-16T11:53:40.054Z,8928
2016-09-16T11:54:50.055Z,9264
2016-09-16T11:56:00.059Z,8200
2016-09-16T11:57:10.358Z,8324
2016-09-16T11:58:20.361Z,9228
2016-09-16T11:59:30.664Z,8004
2016-09-16T12:00:40.665Z,9504
2016-09-16T12:01:51.231Z,9552
2016-09-16T12:03:00.921Z,9532
2016-09-16T12:04:11.235Z,9456
2016-09-16T12:05:21.545Z,9504
2016-09-16T12:06:31.845Z,9700
2016-09-16T12:07:41.826Z,9636
2016-09-16T12:08:51.963Z,9668
2016-09-16T12:10:01.655Z,9636
2016-09-16T12:11:11.645Z,9228
2016-09-16T12:12:21.983Z,9344
2016-09-16T12:13:31.969Z,9264
2016-09-16T12:14:41.976Z,8768
2016-09-16T12:15:52.294Z,8564
2016-09-16T12:17:02.590Z,8004
2016-09-16T12:18:12.296Z,8844
2016-09-16T12:19:22.303Z,8900
2016-09-16T12:20:32.004Z,8876
2016-09-16T12:21:42.032Z,9040
2016-09-16T12:22:52.339Z,9216
2016-09-16T12:24:02.636Z,9320
2016-09-16T12:25:12.937Z,9128
2016-09-16T12:26:22.617Z,8788
2016-09-16T12:27:32.630Z,8912
2016-09-16T12:28:42.634Z,8912
2016-09-16T12:29:54.384Z,9132
2016-09-16T12:31:04.381Z,9188
2016-09-16T12:32:14.676Z,9176
2016-09-16T12:33:24.664Z,9140
2016-09-16T12:34:34.980Z,8984
2016-09-16T12:35:44.977Z,8992
2016-09-16T12:36:54.980Z,8940
2016-09-16T12:38:04.990Z,8896
2016-09-16T12:39:14.980Z,8896
2016-09-16T12:40:25.223Z,8760
2016-09-16T12:41:35.220Z,8732
2016-09-16T12:42:45.223Z,8696
2016-09-16T12:43:54.629Z,8792
2016-09-16T12:45:04.631Z,8680
2016-09-16T12:46:14.934Z,8500
2016-09-16T12:47:24.917Z,8880
2016-09-16T12:48:34.915Z,8920
2016-09-16T12:49:44.600Z,8864
2016-09-16T12:50:54.604Z,8704
2016-09-16T12:52:04.906Z,8652
2016-09-16T12:53:15.221Z,8688
2016-09-16T12:54:25.215Z,8520
2016-09-16T12:55:34.900Z,8272
2016-09-16T12:56:44.892Z,8304
2016-09-16T12:57:54.571Z,8336
2016-09-16T12:59:04.571Z,8364
2016-09-16T13:00:14.893Z,8388
2016-09-16T13:01:24.263Z,8352
2016-09-16T13:02:34.283Z,8268
2016-09-16T13:03:43.972Z,8108
2016-09-16T13:04:54.289Z,7924
2016-09-16T13:06:04.275Z,7992
2016-09-16T13:07:14.574Z,7952
2016-09-16T13:08:24.885Z,7952
2016-09-16T13:09:34.880Z,7776
2016-09-16T13:10:44.564Z,8116
2016-09-16T13:11:54.878Z,7892
2016-09-16T13:13:05.181Z,7832
2016-09-16T13:14:14.549Z,7500
2016-09-16T13:15:24.549Z,7308
2016-09-16T13:16:34.858Z,7444
2016-09-16T13:17:45.175Z,7328
2016-09-16T13:18:55.477Z,7488
2016-09-16T13:20:05.170Z,7568
2016-09-16T13:21:15.165Z,7520
2016-09-16T13:22:25.170Z,7424
2016-09-16T13:23:35.466Z,7736
2016-09-16T13:24:45.163Z,7876
2016-09-16T13:25:55.465Z,7844
2016-09-16T13:27:05.767Z,7696
2016-09-16T13:28:15.459Z,7620
2016-09-16T13:29:25.457Z,7476
2016-09-16T13:30:35.457Z,7544
2016-09-16T13:31:45.449Z,7604
2016-09-16T13:32:55.454Z,7644
2016-09-16T13:34:05.447Z,7524
2016-09-16T13:35:15.440Z,7520
2016-09-16T13:36:25.733Z,7364
2016-09-16T13:37:35.736Z,7496
2016-09-16T13:38:46.044Z,7544
2016-09-16T13:39:56.359Z,7424
2016-09-16T13:41:06.352Z,7344
2016-09-16T13:42:16.029Z,7304
2016-09-16T13:43:25.717Z,7272
2016-09-16T13:44:35.703Z,7316
2016-09-16T13:45:46.007Z,7180
2016-09-16T13:46:55.996Z,7112
2016-09-16T13:48:06.296Z,7332
2016-09-16T13:49:15.993Z,7536
2016-09-16T13:50:25.980Z,7632
2016-09-16T13:51:35.978Z,7572
2016-09-16T13:52:45.994Z,7532
2016-09-16T13:53:55.356Z,7404
2016-09-16T13:55:05.339Z,7412
2016-09-16T13:56:15.339Z,7384
2016-09-16T13:57:25.627Z,7308
2016-09-16T13:58:34.997Z,7220
2016-09-16T13:59:45.293Z,7140
2016-09-16T14:00:55.291Z,7172
2016-09-16T14:02:05.583Z,7164
2016-09-16T14:03:15.895Z,7200
2016-09-16T14:04:25.877Z,7252
2016-09-16T14:05:35.582Z,7348
2016-09-16T14:06:45.889Z,7320
2016-09-16T14:07:56.196Z,7224
2016-09-16T14:09:06.192Z,7112
2016-09-16T14:10:15.568Z,7000
2016-09-16T14:11:25.555Z,6976
2016-09-16T14:12:35.848Z,6924
2016-09-16T14:13:46.160Z,6812
2016-09-16T14:14:56.452Z,6660
2016-09-16T14:16:05.832Z,6476
2016-09-16T14:17:15.531Z,6400
2016-09-16T14:18:25.529Z,6308
2016-09-16T14:19:35.525Z,6320
2016-09-16T14:20:45.548Z,6332
2016-09-16T14:21:55.546Z,6296
2016-09-16T14:23:05.542Z,6204
2016-09-16T14:24:15.220Z,6240
2016-09-16T14:25:25.204Z,6172
2016-09-16T14:26:35.207Z,6212
2016-09-16T14:27:45.204Z,6108
2016-09-16T14:28:55.208Z,6064
2016-09-16T14:30:05.230Z,5960
2016-09-16T14:31:15.230Z,5768
2016-09-16T14:32:25.230Z,5620
2016-09-16T14:33:35.527Z,5532
2016-09-16T14:34:45.518Z,5356
2016-09-16T14:35:55.806Z,5288
2016-09-16T14:37:06.108Z,4972
2016-09-16T14:38:16.404Z,4808
2016-09-16T14:39:26.691Z,4620
2016-09-16T14:40:36.674Z,4380
2016-09-16T14:41:46.664Z,4340
2016-09-16T14:42:56.994Z,4236
2016-09-16T14:44:06.993Z,4008
2016-09-16T14:45:16.982Z,3496
2016-09-16T14:46:26.981Z,3316
2016-09-16T14:47:36.964Z,3056
2016-09-16T14:48:47.261Z,3000
2016-09-16T14:49:57.553Z,2664
2016-09-16T14:51:07.873Z,2640
2016-09-16T14:52:17.565Z,2572
2016-09-16T14:53:27.565Z,2380
2016-09-16T14:54:37.860Z,2344
2016-09-16T14:55:48.186Z,2360
2016-09-16T14:56:57.856Z,2424
2016-09-16T14:58:07.850Z,2472
2016-09-16T14:59:18.159Z,2536
2016-09-16T15:00:28.150Z,2536
2016-09-16T15:01:37.834Z,2500
2016-09-16T15:02:48.131Z,2488
2016-09-16T15:03:58.452Z,2516
2016-09-16T15:05:08.154Z,2520
2016-09-16T15:06:17.845Z,2528
2016-09-16T15:07:27.541Z,2524
2016-09-16T15:08:37.529Z,2512
2016-09-16T15:09:47.522Z,2480
2016-09-16T15:10:56.916Z,2496
2016-09-16T15:12:06.909Z,2532
2016-09-16T15:13:16.915Z,2552
2016-09-16T15:14:26.892Z,2556
2016-09-16T15:15:36.902Z,2544
2016-09-16T15:16:46.900Z,2500
2016-09-16T15:17:56.583Z,2440
2016-09-16T15:19:06.893Z,2392
2016-09-16T15:20:17.195Z,2324
2016-09-16T15:21:27.491Z,2260
2016-09-16T15:22:37.790Z,2200
2016-09-16T15:23:48.079Z,2136
2016-09-16T15:24:57.756Z,2088
2016-09-16T15:26:07.739Z,2060
2016-09-16T15:27:18.020Z,2040
2016-09-16T15:28:28.016Z,2040
2016-09-16T15:29:38.323Z,2052
2016-09-16T15:30:48.005Z,2068
2016-09-16T15:31:57.695Z,2084
2016-09-16T15:33:07.999Z,2084
2016-09-16T15:34:18.311Z,2088
2016-09-16T15:35:28.622Z,2088
2016-09-16T15:36:38.307Z,2092
2016-09-16T15:37:48.301Z,2100
2016-09-16T15:38:58.607Z,2112
2016-09-16T15:40:08.589Z,2120
2016-09-16T15:41:18.266Z,2120
2016-09-16T15:42:28.239Z,2116
2016-09-16T15:43:38.219Z,2108
2016-09-16T15:44:48.209Z,2096
2016-09-16T15:45:58.207Z,2080
2016-09-16T15:47:07.895Z,2060
2016-09-16T15:48:17.601Z,2044
2016-09-16T15:49:27.604Z,2032
2016-09-16T15:50:37.909Z,2016
2016-09-16T15:51:47.901Z,2000
2016-09-16T15:52:58.194Z,1976
2016-09-16T15:54:08.179Z,1952
2016-09-16T15:55:18.186Z,1916
2016-09-16T15:56:28.163Z,1888
2016-09-16T15:57:37.869Z,1848
2016-09-16T15:58:47.880Z,1800
2016-09-16T15:59:57.879Z,1752
2016-09-16T16:01:07.880Z,1700
2016-09-16T16:02:17.257Z,1640
2016-09-16T16:03:27.259Z,1580
2016-09-16T16:04:37.275Z,1516
2016-09-16T16:05:47.561Z,1452
2016-09-16T16:06:57.559Z,1392
2016-09-16T16:08:07.330Z,1332
2016-09-16T16:09:16.715Z,1276
2016-09-16T16:10:26.736Z,1228
2016-09-16T16:11:36.710Z,1180
2016-09-16T16:12:46.715Z,1132
2016-09-16T16:13:56.725Z,1096
2016-09-16T16:15:07.088Z,1056
2016-09-16T16:16:17.425Z,1028
2016-09-16T16:17:26.856Z,992
2016-09-16T16:18:36.877Z,960
2016-09-16T16:19:47.212Z,924
2016-09-16T16:20:57.244Z,884
2016-09-16T16:22:07.589Z,852
2016-09-16T16:23:17.929Z,816
2016-09-16T16:24:27.984Z,784
2016-09-16T16:25:38.020Z,752
2016-09-16T16:26:48.325Z,720
2016-09-16T16:27:58.320Z,688